Time;durP1;ratioP1;P1;durP2;ratioP2;P2;SDS_P1;SDS_P2;PMS_P1;PMS_P2;Temp;Humidity;BMP_temperature;BMP_pressure;BME280_temperature;BME280_humidity;BME280_pressure;Samples;Min_cycle;Max_cycle;Signal;HPM_P1;HPM_P2
2021/01/09 00:00:13;;;;;;;78.25;45.47;;;25.60;2201.60;;;;;;4829115;29;20030;-78
2021/01/09 00:02:39;;;;;;;72.85;44.63;;;25.60;2201.60;;;;;;4841161;29;20034;-78
2021/01/09 00:05:06;;;;;;;71.38;43.80;;;0.90;2201.60;;;;;;4828848;29;20398;-78
2021/01/09 00:07:32;;;;;;;65.53;42.25;;;25.60;2201.60;;;;;;4839951;29;20128;-77
2021/01/09 00:09:59;;;;;;;75.00;42.85;;;25.60;2201.60;;;;;;4840422;29;20034;-77
2021/01/09 00:12:25;;;;;;;64.88;40.67;;;0.90;2201.60;;;;;;4838936;29;20034;-76
2021/01/09 00:14:51;;;;;;;73.32;47.47;;;0.90;2201.60;;;;;;4834295;29;20102;-77
2021/01/09 00:17:17;;;;;;;71.65;40.47;;;0.90;2201.60;;;;;;4838614;29;20046;-77
2021/01/09 00:19:43;;;;;;;67.43;40.00;;;0.90;2201.60;;;;;;4840793;29;20077;-76
2021/01/09 00:22:09;;;;;;;71.88;43.05;;;0.90;2201.60;;;;;;4840197;29;20038;-78
2021/01/09 00:24:35;;;;;;;67.63;42.10;;;0.90;2201.60;;;;;;4841000;29;20175;-77
2021/01/09 00:27:01;;;;;;;69.25;43.80;;;0.90;2201.60;;;;;;4840320;29;20030;-76
2021/01/09 00:29:26;;;;;;;68.47;42.00;;;0.90;2201.60;;;;;;4840859;29;20026;-76
2021/01/09 00:31:53;;;;;;;65.25;40.92;;;0.90;2201.60;;;;;;4839827;29;20053;-77
2021/01/09 00:34:20;;;;;;;66.28;38.28;;;0.90;2201.60;;;;;;4840840;29;20073;-77
2021/01/09 00:36:49;;;;;;;69.03;42.10;;;0.90;2201.60;;;;;;4838899;29;20030;-77
2021/01/09 00:39:15;;;;;;;63.15;40.92;;;0.90;2201.60;;;;;;4839769;29;20038;-76
2021/01/09 00:41:41;;;;;;;67.90;41.95;;;0.90;2201.60;;;;;;4841873;29;20475;-77
2021/01/09 00:44:07;;;;;;;65.30;39.95;;;0.90;2201.60;;;;;;4838920;29;20042;-78
2021/01/09 00:46:33;;;;;;;78.55;46.45;;;0.90;2201.60;;;;;;4840824;29;20673;-77
2021/01/09 00:48:59;;;;;;;73.40;41.92;;;0.80;2201.60;;;;;;4840208;29;20029;-77
2021/01/09 00:51:25;;;;;;;73.00;41.97;;;0.80;2201.60;;;;;;4841849;29;20386;-76
2021/01/09 00:53:50;;;;;;;62.78;38.58;;;0.80;2201.60;;;;;;4840207;29;20030;-76
2021/01/09 00:56:17;;;;;;;65.53;41.13;;;0.70;2201.60;;;;;;4840310;29;20049;-77
2021/01/09 00:58:43;;;;;;;67.72;42.30;;;0.70;2201.60;;;;;;4840818;29;20034;-77
2021/01/09 01:01:10;;;;;;;64.00;41.10;;;0.70;2201.60;;;;;;4839907;29;20447;-76
2021/01/09 01:03:37;;;;;;;61.33;39.28;;;0.60;2201.60;;;;;;4839343;29;20022;-76
2021/01/09 01:06:03;;;;;;;66.22;39.95;;;0.60;2201.60;;;;;;4839380;29;20383;-76
2021/01/09 01:08:29;;;;;;;68.35;40.22;;;0.60;2201.60;;;;;;4840323;29;20533;-76
2021/01/09 01:10:55;;;;;;;63.13;40.28;;;0.60;2201.60;;;;;;4838522;29;20033;-76
2021/01/09 01:13:21;;;;;;;69.95;40.35;;;0.60;2201.60;;;;;;4839312;29;20506;-76
2021/01/09 01:15:48;;;;;;;68.13;41.08;;;0.60;2201.60;;;;;;4840479;29;20037;-76
2021/01/09 01:18:13;;;;;;;67.72;41.78;;;0.60;2201.60;;;;;;4831253;29;20090;-75
2021/01/09 01:20:39;;;;;;;63.55;41.70;;;0.60;2201.60;;;;;;4825531;29;20025;-75
2021/01/09 01:23:05;;;;;;;65.97;39.47;;;0.60;2201.60;;;;;;4840238;29;20037;-75
2021/01/09 01:25:30;;;;;;;63.75;38.88;;;0.60;2201.60;;;;;;4840357;29;20034;-76
2021/01/09 01:27:56;;;;;;;60.08;40.22;;;0.60;2201.60;;;;;;4841899;29;20036;-76
2021/01/09 01:30:22;;;;;;;63.95;38.60;;;0.60;2201.60;;;;;;4840175;29;20033;-77
2021/01/09 01:32:48;;;;;;;66.88;39.45;;;0.50;2201.60;;;;;;4839553;29;20049;-76
2021/01/09 01:35:13;;;;;;;66.22;40.80;;;0.60;2201.60;;;;;;4840613;29;20034;-77
2021/01/09 01:37:39;;;;;;;63.45;41.38;;;0.50;2201.60;;;;;;4840783;29;20030;-77
2021/01/09 01:40:06;;;;;;;60.72;38.33;;;0.50;2201.60;;;;;;4841129;29;20502;-76
2021/01/09 01:42:32;;;;;;;63.22;40.50;;;0.50;2201.60;;;;;;4842407;29;20553;-76
2021/01/09 01:44:58;;;;;;;66.93;43.13;;;0.40;2201.60;;;;;;4842549;29;20046;-76
2021/01/09 01:47:24;;;;;;;67.75;43.05;;;0.40;2201.60;;;;;;4839209;29;20141;-76
2021/01/09 01:49:50;;;;;;;66.10;39.00;;;0.40;2201.60;;;;;;4840047;29;20022;-77
2021/01/09 01:52:17;;;;;;;61.03;38.50;;;0.40;2201.60;;;;;;4839863;29;20030;-76
2021/01/09 01:54:44;;;;;;;59.53;39.88;;;0.40;2201.60;;;;;;4842110;29;20049;-77
2021/01/09 01:57:12;;;;;;;67.55;40.22;;;0.40;2201.60;;;;;;4841081;29;20034;-76
2021/01/09 01:59:41;;;;;;;59.53;38.67;;;0.40;2201.60;;;;;;4839752;29;20030;-76
2021/01/09 02:02:09;;;;;;;70.85;41.78;;;0.40;2201.60;;;;;;4841243;29;20550;-77
2021/01/09 02:04:35;;;;;;;61.88;41.00;;;0.50;2201.60;;;;;;4840447;29;20494;-76
2021/01/09 02:07:17;;;;;;;62.38;38.70;;;0.40;2201.60;;;;;;4841843;29;20508;-76
2021/01/09 02:09:47;;;;;;;66.18;41.20;;;0.40;2201.60;;;;;;4842265;29;20038;-77
2021/01/09 02:12:29;;;;;;;62.90;39.65;;;0.50;2201.60;;;;;;4839290;29;20026;-77
2021/01/09 02:14:57;;;;;;;69.30;41.75;;;0.50;2201.60;;;;;;4840486;29;20049;-78
2021/01/09 02:17:24;;;;;;;65.38;41.58;;;0.50;2201.60;;;;;;4839740;29;20118;-78
2021/01/09 02:19:50;;;;;;;66.63;38.70;;;0.50;2201.60;;;;;;4841648;29;20080;-77
2021/01/09 02:22:17;;;;;;;65.53;40.72;;;0.50;2201.60;;;;;;4840054;29;20503;-77
2021/01/09 02:24:45;;;;;;;56.55;35.75;;;0.50;2201.60;;;;;;4822905;29;20041;-78
2021/01/09 02:27:11;;;;;;;62.17;37.38;;;0.40;2201.60;;;;;;4828559;29;20482;-78
2021/01/09 02:30:02;;;;;;;64.43;40.03;;;0.50;2201.60;;;;;;4839751;29;20097;-77
2021/01/09 02:32:33;;;;;;;62.38;37.22;;;0.40;2201.60;;;;;;4840073;29;20068;-77
2021/01/09 02:35:00;;;;;;;65.43;41.05;;;0.40;2201.60;;;;;;4839112;29;20090;-77
2021/01/09 02:37:27;;;;;;;70.30;41.05;;;0.30;2201.60;;;;;;4839449;29;20498;-77
2021/01/09 02:39:54;;;;;;;65.75;39.75;;;0.40;2201.60;;;;;;4841319;29;20034;-77
2021/01/09 02:42:21;;;;;;;69.68;42.05;;;0.30;2201.60;;;;;;4839607;29;20125;-77
2021/01/09 02:44:51;;;;;;;67.70;40.67;;;0.30;2201.60;;;;;;4841039;29;20191;-76
2021/01/09 02:47:18;;;;;;;60.20;40.47;;;0.30;2201.60;;;;;;4840846;29;20030;-77
2021/01/09 02:49:44;;;;;;;64.00;40.78;;;0.30;2201.60;;;;;;4839608;29;20098;-77
2021/01/09 02:52:10;;;;;;;69.72;41.08;;;0.30;2201.60;;;;;;4839233;29;20105;-78
2021/01/09 02:54:36;;;;;;;65.80;42.42;;;0.30;2201.60;;;;;;4840317;29;20473;-78
2021/01/09 02:57:03;;;;;;;65.45;42.55;;;0.30;2201.60;;;;;;4838946;29;20133;-77
2021/01/09 02:59:28;;;;;;;68.70;42.92;;;0.30;2201.60;;;;;;4838990;29;20030;-78
2021/01/09 03:01:54;;;;;;;68.15;42.95;;;0.30;2201.60;;;;;;4840072;29;20410;-77
2021/01/09 03:04:23;;;;;;;75.97;44.17;;;0.30;2201.60;;;;;;4839465;29;20030;-78
2021/01/09 03:06:48;;;;;;;67.75;44.50;;;0.40;2201.60;;;;;;4840998;29;20117;-77
2021/01/09 03:09:14;;;;;;;77.57;45.83;;;0.40;2201.60;;;;;;4840846;29;20587;-77
2021/01/09 03:11:40;;;;;;;68.97;42.97;;;0.40;2201.60;;;;;;4841309;29;20026;-77
2021/01/09 03:14:06;;;;;;;79.07;45.40;;;0.40;2201.60;;;;;;4839355;29;20041;-78
2021/01/09 03:16:31;;;;;;;70.80;41.53;;;0.40;2201.60;;;;;;4841351;29;20050;-78
2021/01/09 03:18:57;;;;;;;72.00;43.78;;;0.40;2201.60;;;;;;4840537;29;20065;-77
2021/01/09 03:21:23;;;;;;;68.63;42.78;;;0.40;2201.60;;;;;;4839846;29;20037;-77
2021/01/09 03:23:48;;;;;;;78.88;45.15;;;0.40;2201.60;;;;;;4840458;29;20029;-79
2021/01/09 03:26:16;;;;;;;73.40;46.00;;;0.40;2201.60;;;;;;4839270;29;20045;-77
2021/01/09 03:28:41;;;;;;;73.68;45.10;;;0.30;2201.60;;;;;;4839244;29;20026;-78
2021/01/09 03:31:07;;;;;;;71.55;44.85;;;0.30;2201.60;;;;;;4839051;29;20397;-78
2021/01/09 03:33:32;;;;;;;65.88;42.30;;;0.30;2201.60;;;;;;4839296;29;20105;-79
2021/01/09 03:35:58;;;;;;;73.13;43.42;;;0.30;2201.60;;;;;;4839249;29;20036;-78
2021/01/09 03:38:24;;;;;;;67.32;42.28;;;0.30;2201.60;;;;;;4839277;29;20045;-78
2021/01/09 03:40:50;;;;;;;68.47;41.65;;;0.30;2201.60;;;;;;4839117;29;20042;-78
2021/01/09 03:43:16;;;;;;;62.95;40.42;;;0.30;2201.60;;;;;;4839516;29;20038;-77
2021/01/09 03:45:41;;;;;;;66.43;41.50;;;0.30;2201.60;;;;;;4839476;29;20095;-77
2021/01/09 03:48:07;;;;;;;65.38;39.38;;;0.30;2201.60;;;;;;4841273;29;20549;-78
2021/01/09 03:50:33;;;;;;;74.25;43.88;;;0.30;2201.60;;;;;;4839856;29;20034;-78
2021/01/09 03:52:59;;;;;;;72.32;45.28;;;0.30;2201.60;;;;;;4839206;29;20030;-77
2021/01/09 03:55:25;;;;;;;64.05;41.20;;;0.30;2201.60;;;;;;4840060;29;20034;-77
2021/01/09 03:57:50;;;;;;;69.25;42.90;;;0.20;2201.60;;;;;;4839686;29;20030;-76
2021/01/09 04:00:16;;;;;;;69.90;44.58;;;0.30;2201.60;;;;;;4839892;29;20402;-78
2021/01/09 04:02:42;;;;;;;75.32;45.03;;;0.20;2201.60;;;;;;4832638;29;20051;-77
2021/01/09 04:05:09;;;;;;;72.72;43.97;;;0.20;2201.60;;;;;;4829609;29;20090;-78
2021/01/09 04:07:35;;;;;;;72.00;44.75;;;0.20;2201.60;;;;;;4833119;29;20033;-77
2021/01/09 04:10:00;;;;;;;72.07;44.47;;;0.20;2201.60;;;;;;4839613;29;20030;-76
2021/01/09 04:12:26;;;;;;;69.68;43.78;;;0.20;2201.60;;;;;;4843432;29;20498;-77
2021/01/09 04:14:52;;;;;;;76.47;47.63;;;0.10;2201.60;;;;;;4844457;29;20040;-77
2021/01/09 04:17:18;;;;;;;67.18;42.28;;;0.00;2201.60;;;;;;4844245;29;20037;-76
2021/01/09 04:19:43;;;;;;;73.63;45.88;;;0.00;2201.60;;;;;;4842845;29;20043;-76
2021/01/09 04:22:09;;;;;;;83.93;50.35;;;12.90;2201.60;;;;;;4844004;29;20032;-77
2021/01/09 04:24:35;;;;;;;86.35;50.88;;;12.90;2201.60;;;;;;4842732;29;20033;-76
2021/01/09 04:27:02;;;;;;;75.65;47.30;;;13.00;2201.60;;;;;;4833349;29;20125;-76
2021/01/09 04:29:28;;;;;;;87.00;50.53;;;13.10;2201.60;;;;;;4823866;29;20073;-76
2021/01/09 04:31:54;;;;;;;80.15;49.78;;;13.10;2201.60;;;;;;4834813;29;20057;-75
2021/01/09 04:34:22;;;;;;;83.72;48.35;;;13.20;2201.60;;;;;;4832413;29;20479;-77
2021/01/09 04:36:47;;;;;;;80.43;49.17;;;13.20;2201.60;;;;;;4824645;29;20395;-77
2021/01/09 04:39:16;;;;;;;90.10;51.55;;;13.20;2201.60;;;;;;4824130;29;20030;-77
2021/01/09 04:41:43;;;;;;;91.60;54.42;;;13.10;2201.60;;;;;;4824732;29;20030;-77
2021/01/09 04:44:10;;;;;;;94.70;56.72;;;13.20;2201.60;;;;;;4825277;29;20071;-77
2021/01/09 04:46:51;;;;;;;106.07;56.50;;;13.20;2201.60;;;;;;4824636;29;20510;-77
2021/01/09 04:49:19;;;;;;;95.63;58.08;;;13.20;2201.60;;;;;;4825563;29;20099;-77
2021/01/09 04:51:45;;;;;;;96.55;58.17;;;13.10;2201.60;;;;;;4823389;29;20166;-77
2021/01/09 04:54:14;;;;;;;98.78;60.90;;;13.10;2201.60;;;;;;4826089;29;20457;-76
2021/01/09 04:56:40;;;;;;;110.93;62.58;;;13.00;2201.60;;;;;;4825693;29;20070;-76
2021/01/09 04:59:06;;;;;;;96.20;60.03;;;13.10;2201.60;;;;;;4824095;29;20027;-76
2021/01/09 05:01:32;;;;;;;97.07;60.28;;;13.10;2201.60;;;;;;4832581;29;20119;-76
2021/01/09 05:03:59;;;;;;;98.80;56.45;;;13.10;2201.60;;;;;;4841885;29;20065;-76
2021/01/09 05:06:24;;;;;;;92.05;56.13;;;13.10;2201.60;;;;;;4842536;29;20038;-76
2021/01/09 05:08:50;;;;;;;91.07;57.00;;;13.10;2201.60;;;;;;4842259;29;21112;-76
2021/01/09 05:11:17;;;;;;;87.75;52.63;;;13.10;2201.60;;;;;;4843696;29;20076;-75
2021/01/09 05:13:43;;;;;;;89.95;52.47;;;13.10;2201.60;;;;;;4841521;29;20041;-76
2021/01/09 05:16:10;;;;;;;81.82;49.55;;;13.10;2201.60;;;;;;4843993;29;20540;-76
2021/01/09 05:18:38;;;;;;;77.68;46.83;;;13.10;2201.60;;;;;;4841888;29;20062;-76
2021/01/09 05:21:05;;;;;;;90.68;52.55;;;13.20;2201.60;;;;;;4843645;29;20793;-76
2021/01/09 05:23:49;;;;;;;90.65;55.58;;;13.30;2201.60;;;;;;4841006;29;20030;-76
2021/01/09 05:26:16;;;;;;;95.43;55.85;;;13.30;2201.60;;;;;;4843008;29;20034;-76
2021/01/09 05:28:44;;;;;;;87.15;52.85;;;13.40;2201.60;;;;;;4843414;29;20029;-76
2021/01/09 05:31:10;;;;;;;91.53;53.20;;;13.30;2201.60;;;;;;4841319;29;20034;-77
2021/01/09 05:33:36;;;;;;;85.53;55.03;;;13.40;2201.60;;;;;;4844056;29;20496;-77
2021/01/09 05:36:04;;;;;;;88.15;50.20;;;13.40;2201.60;;;;;;4843224;29;20030;-76
2021/01/09 05:38:37;;;;;;;89.70;52.60;;;13.30;2201.60;;;;;;4841669;29;20034;-77
2021/01/09 05:41:06;;;;;;;82.07;52.50;;;13.30;2201.60;;;;;;4842449;29;20026;-77
2021/01/09 05:43:32;;;;;;;83.45;53.15;;;13.30;2201.60;;;;;;4840805;29;20057;-76
2021/01/09 05:46:00;;;;;;;96.03;54.22;;;13.20;2201.60;;;;;;4841436;29;20100;-76
2021/01/09 05:48:30;;;;;;;93.50;55.88;;;13.10;2201.60;;;;;;4840556;29;20049;-75
2021/01/09 05:50:58;;;;;;;98.43;60.40;;;13.20;2201.60;;;;;;4841626;29;20045;-77
2021/01/09 05:53:41;;;;;;;96.85;59.55;;;13.20;2201.60;;;;;;4842846;29;20110;-76
2021/01/09 05:56:08;;;;;;;98.13;58.15;;;13.20;2201.60;;;;;;4841355;29;20082;-77
2021/01/09 05:58:34;;;;;;;102.82;60.08;;;13.20;2201.60;;;;;;4842173;29;20079;-77
2021/01/09 06:01:07;;;;;;;95.25;58.78;;;13.20;2201.60;;;;;;4841635;29;20121;-76
2021/01/09 06:03:47;;;;;;;96.82;60.13;;;13.10;2201.60;;;;;;4842329;29;20026;-75
2021/01/09 06:06:31;;;;;;;104.40;59.55;;;13.10;2201.60;;;;;;4842614;29;20030;-75
2021/01/09 06:09:05;;;;;;;108.47;63.53;;;13.10;2201.60;;;;;;4840539;29;20026;-75
2021/01/09 06:11:35;;;;;;;119.78;72.22;;;13.20;2201.60;;;;;;4840757;29;20034;-76
2021/01/09 06:14:03;;;;;;;119.25;71.65;;;13.30;2201.60;;;;;;4842021;29;20034;-76
2021/01/09 06:16:30;;;;;;;116.00;68.57;;;13.30;2201.60;;;;;;4840236;29;20038;-76
2021/01/09 06:18:58;;;;;;;123.47;69.45;;;13.30;2201.60;;;;;;4840966;29;20541;-75
2021/01/09 06:21:25;;;;;;;107.32;62.45;;;13.40;2201.60;;;;;;4839647;29;20461;-75
2021/01/09 06:23:56;;;;;;;94.13;57.00;;;13.50;2201.60;;;;;;4841811;29;20049;-75
2021/01/09 06:26:23;;;;;;;101.50;58.65;;;13.50;2201.60;;;;;;4840206;29;20401;-76
2021/01/09 06:28:59;;;;;;;97.45;57.72;;;13.50;2201.60;;;;;;4840769;29;20086;-76
2021/01/09 06:31:27;;;;;;;101.15;58.33;;;13.50;2201.60;;;;;;4840785;29;20825;-76
2021/01/09 06:33:55;;;;;;;94.35;54.67;;;13.50;2201.60;;;;;;4839898;29;20060;-76
2021/01/09 06:36:23;;;;;;;83.97;50.85;;;13.30;2201.60;;;;;;4840709;29;20040;-76
2021/01/09 06:38:54;;;;;;;91.00;52.50;;;13.30;2201.60;;;;;;4840311;29;20022;-76
2021/01/09 06:41:22;;;;;;;88.78;53.80;;;13.20;2201.60;;;;;;4840709;29;20036;-76
2021/01/09 06:43:50;;;;;;;98.35;55.60;;;13.10;2201.60;;;;;;4840537;29;20121;-77
2021/01/09 06:46:37;;;;;;;97.60;59.00;;;13.20;2201.60;;;;;;4841878;29;20493;-76
2021/01/09 06:49:03;;;;;;;101.20;60.75;;;13.30;2201.60;;;;;;4841110;29;20454;-76
2021/01/09 06:51:35;;;;;;;103.90;62.50;;;13.30;2201.60;;;;;;4841802;29;20058;-77
2021/01/09 06:54:15;;;;;;;104.90;59.55;;;13.20;2201.60;;;;;;4841236;29;20034;-77
2021/01/09 06:56:45;;;;;;;105.63;64.00;;;13.10;2201.60;;;;;;4841471;29;20030;-78
2021/01/09 06:59:28;;;;;;;125.65;73.32;;;13.10;2201.60;;;;;;4842683;29;20083;-78
2021/01/09 07:02:18;;;;;;;111.10;65.35;;;13.20;2201.60;;;;;;4843299;29;20564;-77
2021/01/09 07:05:18;;;;;;;112.13;63.15;;;13.10;2201.60;;;;;;4841474;29;20026;-77
2021/01/09 07:07:53;;;;;;;97.63;57.80;;;12.90;2201.60;;;;;;4840387;29;20038;-76
2021/01/09 07:10:28;;;;;;;92.53;59.53;;;12.90;2201.60;;;;;;4840829;29;20393;-77
2021/01/09 07:12:59;;;;;;;101.90;65.20;;;0.00;2201.60;;;;;;4841155;29;20290;-77
2021/01/09 07:15:28;;;;;;;106.10;67.57;;;0.00;2201.60;;;;;;4841516;29;20026;-77
2021/01/09 07:17:59;;;;;;;102.15;63.75;;;0.10;2201.60;;;;;;4842321;29;20109;-77
2021/01/09 07:20:35;;;;;;;102.95;64.38;;;0.20;2201.60;;;;;;4841180;29;20792;-77
2021/01/09 07:23:03;;;;;;;100.35;64.75;;;0.20;2201.60;;;;;;4842147;29;20026;-76
2021/01/09 07:25:36;;;;;;;108.82;68.97;;;0.20;2201.60;;;;;;4840941;29;20022;-78
2021/01/09 07:28:12;;;;;;;133.30;79.30;;;0.30;2201.60;;;;;;4842335;29;20022;-77
2021/01/09 07:30:38;;;;;;;;;;;0.30;2201.60;;;;;;4842031;29;20023;-77
2021/01/09 07:33:09;;;;;;;146.93;89.47;;;0.30;2201.60;;;;;;4840743;29;19915;-76
2021/01/09 07:35:38;;;;;;;140.35;87.25;;;0.30;2201.60;;;;;;4841588;29;20042;-77
2021/01/09 07:38:05;;;;;;;127.68;78.63;;;0.40;2201.60;;;;;;4841603;29;20030;-77
2021/01/09 07:40:46;;;;;;;107.35;75.60;;;0.40;2201.60;;;;;;4839523;29;20041;-77
2021/01/09 07:43:44;;;;;;;110.65;66.13;;;0.40;2201.60;;;;;;4840404;29;20034;-77
2021/01/09 07:46:29;;;;;;;111.78;65.13;;;0.40;2201.60;;;;;;4842745;29;20049;-77
2021/01/09 07:49:03;;;;;;;114.75;68.20;;;0.50;2201.60;;;;;;4844604;29;20086;-78
2021/01/09 07:51:49;;;;;;;114.90;71.13;;;0.50;2201.60;;;;;;4842322;29;20066;-78
2021/01/09 07:54:38;;;;;;;103.60;62.42;;;0.60;2201.60;;;;;;4842971;29;20481;-78
2021/01/09 07:57:04;;;;;;;111.40;63.97;;;0.70;2201.60;;;;;;4842162;29;20042;-77
2021/01/09 07:59:31;;;;;;;96.55;58.63;;;0.70;2201.60;;;;;;4843143;29;20430;-78
2021/01/09 08:01:56;;;;;;;102.07;65.13;;;0.70;2201.60;;;;;;4842162;29;20121;-78
2021/01/09 08:04:22;;;;;;;109.78;65.22;;;0.80;2201.60;;;;;;4843198;29;20057;-78
2021/01/09 08:06:48;;;;;;;92.55;59.03;;;0.90;2201.60;;;;;;4843905;29;20080;-78
2021/01/09 08:09:13;;;;;;;103.40;64.57;;;0.90;2201.60;;;;;;4842846;29;20034;-79
2021/01/09 08:11:44;;;;;;;110.50;68.35;;;25.60;2201.60;;;;;;4842330;29;20033;-79
2021/01/09 08:14:13;;;;;;;114.22;68.55;;;25.60;2201.60;;;;;;4842522;29;20030;-79
2021/01/09 08:16:39;;;;;;;123.97;71.38;;;25.70;2201.60;;;;;;4843270;29;20117;-77
2021/01/09 08:19:17;;;;;;;144.77;88.15;;;25.70;2201.60;;;;;;4843455;29;20067;-78
2021/01/09 08:21:46;;;;;;;103.93;64.65;;;25.80;2201.60;;;;;;4842749;29;20057;-78
2021/01/09 08:24:20;;;;;;;88.43;56.55;;;25.80;2201.60;;;;;;4842404;29;20539;-77
2021/01/09 08:26:53;;;;;;;92.15;55.83;;;25.80;2201.60;;;;;;4843130;29;20034;-76
2021/01/09 08:29:27;;;;;;;96.07;61.33;;;25.80;2201.60;;;;;;4842497;29;20034;-77
2021/01/09 08:31:54;;;;;;;108.95;64.47;;;25.80;2201.60;;;;;;4842718;29;20116;-78
2021/01/09 08:34:24;;;;;;;107.05;65.78;;;25.80;2201.60;;;;;;4844602;29;20448;-75
2021/01/09 08:36:53;;;;;;;90.88;57.83;;;25.80;2201.60;;;;;;4841952;29;20090;-77
2021/01/09 08:39:18;;;;;;;84.28;56.47;;;25.90;2201.60;;;;;;4842996;29;20082;-77
2021/01/09 08:41:44;;;;;;;81.95;51.38;;;25.80;2201.60;;;;;;4842398;29;20026;-77
2021/01/09 08:44:14;;;;;;;88.70;54.47;;;25.90;2201.60;;;;;;4842487;29;20575;-78
2021/01/09 08:46:42;;;;;;;84.80;54.88;;;26.00;2201.60;;;;;;4843602;29;20110;-77
2021/01/09 08:49:25;;;;;;;78.85;51.53;;;26.00;2201.60;;;;;;4841940;29;20033;-77
2021/01/09 08:52:11;;;;;;;80.32;50.42;;;26.00;2201.60;;;;;;4842247;29;20036;-77
2021/01/09 08:54:39;;;;;;;84.55;51.22;;;26.10;2201.60;;;;;;4843676;29;20053;-77
2021/01/09 08:57:06;;;;;;;82.47;51.42;;;26.20;2201.60;;;;;;4841095;29;20102;-77
2021/01/09 08:59:33;;;;;;;79.57;50.33;;;26.30;2201.60;;;;;;4842022;29;20033;-77
2021/01/09 09:02:06;;;;;;;83.80;51.80;;;26.50;2176.00;;;;;;4841007;29;20033;-76
2021/01/09 09:04:33;;;;;;;76.10;49.92;;;26.50;2176.00;;;;;;4842088;29;20483;-77
2021/01/09 09:07:03;;;;;;;72.25;47.08;;;26.50;2176.00;;;;;;4841481;29;20121;-77
2021/01/09 09:09:32;;;;;;;69.97;47.08;;;26.50;2150.40;;;;;;4842828;29;20113;-77
2021/01/09 09:11:58;;;;;;;75.90;51.42;;;26.50;2150.40;;;;;;4842045;29;20086;-76
2021/01/09 09:14:25;;;;;;;77.90;50.30;;;51.30;2176.00;;;;;;4842470;29;20030;-77
2021/01/09 09:17:19;;;;;;;81.45;53.20;;;51.40;2150.40;;;;;;4841683;29;20498;-77
2021/01/09 09:19:45;;;;;;;89.05;53.42;;;51.70;2124.80;;;;;;4840881;29;20038;-77
2021/01/09 09:22:11;;;;;;;76.80;49.88;;;52.00;2124.80;;;;;;4841146;29;20037;-77
2021/01/09 09:24:41;;;;;;;88.38;55.25;;;76.90;2099.20;;;;;;4843239;29;20026;-78
2021/01/09 09:27:30;;;;;;;83.78;54.67;;;77.20;2048.00;;;;;;4840981;29;20516;-77
2021/01/09 09:30:14;;;;;;;78.60;50.33;;;77.40;2073.60;;;;;;4841601;29;20041;-76
2021/01/09 09:32:43;;;;;;;68.28;46.47;;;102.60;1945.60;;;;;;4843115;29;20032;-77
2021/01/09 09:35:27;;;;;;;68.05;45.53;;;102.80;1894.40;;;;;;4840395;29;20081;-76
2021/01/09 09:37:54;;;;;;;66.85;46.85;;;103.10;1843.20;;;;;;4841015;29;20069;-76
2021/01/09 09:40:23;;;;;;;63.05;44.50;;;103.00;1868.80;;;;;;4841327;29;20030;-76
2021/01/09 09:42:49;;;;;;;70.68;49.35;;;102.90;1843.20;;;;;;4842358;29;20026;-77
2021/01/09 09:45:16;;;;;;;74.93;49.28;;;102.70;1894.40;;;;;;4842938;29;20091;-76
2021/01/09 09:47:46;;;;;;;74.20;47.50;;;102.50;1920.00;;;;;;4841004;29;20558;-77
2021/01/09 09:50:12;;;;;;;72.93;48.15;;;102.90;1868.80;;;;;;4843309;29;20034;-76
2021/01/09 09:52:38;;;;;;;70.07;47.40;;;128.00;1843.20;;;;;;4839532;29;20081;-77
2021/01/09 09:55:06;;;;;;;60.45;41.88;;;128.20;1843.20;;;;;;4840820;29;20073;-77
2021/01/09 09:57:32;;;;;;;63.90;44.97;;;128.10;1792.00;;;;;;4840067;29;20061;-77
2021/01/09 10:00:07;;;;;;;66.20;44.95;;;128.40;1792.00;;;;;;4840121;29;20034;-77
2021/01/09 10:02:33;;;;;;;70.10;47.55;;;128.50;1817.60;;;;;;4834948;29;20048;-77
2021/01/09 10:04:59;;;;;;;64.40;44.58;;;128.70;1792.00;;;;;;4830876;29;20026;-76
2021/01/09 10:07:25;;;;;;;59.03;39.88;;;153.60;1766.40;;;;;;4842339;29;20034;-76
2021/01/09 10:09:52;;;;;;;60.25;43.50;;;153.80;1689.60;;;;;;4841756;29;20030;-76
2021/01/09 10:12:17;;;;;;;59.55;40.53;;;153.90;1715.20;;;;;;4841202;29;20367;-76
2021/01/09 10:14:43;;;;;;;60.22;41.55;;;154.40;1664.00;;;;;;4840352;29;20062;-76
2021/01/09 10:17:16;;;;;;;56.65;38.50;;;179.50;1587.20;;;;;;4840372;29;20033;-75
2021/01/09 10:19:43;;;;;;;48.65;37.15;;;179.90;1561.60;;;;;;4839821;29;20030;-76
2021/01/09 10:22:09;;;;;;;58.95;41.63;;;180.10;1510.40;;;;;;4841222;29;20026;-76
2021/01/09 10:24:35;;;;;;;52.03;39.40;;;179.90;1561.60;;;;;;4841069;29;20037;-76
2021/01/09 10:27:02;;;;;;;52.55;35.50;;;179.50;1587.20;;;;;;4840043;29;20430;-76
2021/01/09 10:29:28;;;;;;;51.38;37.60;;;180.00;1536.00;;;;;;4842001;29;20082;-77
2021/01/09 10:31:53;;;;;;;53.75;38.88;;;204.90;1484.80;;;;;;4839816;29;20041;-76
2021/01/09 10:34:19;;;;;;;61.83;43.55;;;204.90;1510.40;;;;;;4842240;29;20801;-77
2021/01/09 10:36:45;;;;;;;62.55;44.88;;;205.20;1484.80;;;;;;4840369;29;20052;-77
2021/01/09 10:39:11;;;;;;;61.97;43.35;;;205.50;1459.20;;;;;;4840306;29;20046;-76
2021/01/09 10:41:37;;;;;;;64.55;43.90;;;205.40;1433.60;;;;;;4840348;29;20034;-77
2021/01/09 10:44:04;;;;;;;52.45;39.75;;;205.20;1484.80;;;;;;4840441;29;20133;-77
2021/01/09 10:46:30;;;;;;;67.75;46.78;;;205.30;1433.60;;;;;;4841971;29;20037;-77
2021/01/09 10:48:57;;;;;;;63.05;45.60;;;205.20;1459.20;;;;;;4840339;29;20122;-78
2021/01/09 10:51:24;;;;;;;65.65;47.97;;;205.20;1459.20;;;;;;4840953;29;20082;-77
2021/01/09 10:53:50;;;;;;;99.70;63.78;;;205.20;1484.80;;;;;;4841652;29;20030;-78
2021/01/09 10:56:17;;;;;;;70.85;50.30;;;205.00;1484.80;;;;;;4840645;29;20409;-78
2021/01/09 10:58:43;;;;;;;66.95;47.03;;;204.90;1484.80;;;;;;4840495;29;20086;-77
2021/01/09 11:01:09;;;;;;;72.55;50.67;;;205.20;1459.20;;;;;;4842429;29;20105;-77
2021/01/09 11:03:35;;;;;;;75.38;52.13;;;205.10;1484.80;;;;;;4840632;29;20037;-77
2021/01/09 11:06:01;;;;;;;88.32;58.92;;;204.80;1510.40;;;;;;4840206;29;20030;-77
2021/01/09 11:08:27;;;;;;;85.95;59.08;;;179.70;1561.60;;;;;;4842208;29;20034;-77
2021/01/09 11:10:54;;;;;;;69.65;50.53;;;180.00;1536.00;;;;;;4840543;29;20034;-77
2021/01/09 11:13:20;;;;;;;67.15;47.88;;;179.90;1510.40;;;;;;4840941;29;20044;-77
2021/01/09 11:15:48;;;;;;;77.75;51.67;;;180.00;1510.40;;;;;;4840518;29;20129;-77
2021/01/09 11:18:14;;;;;;;81.85;56.97;;;179.80;1536.00;;;;;;4840968;29;20041;-77
2021/01/09 11:20:45;;;;;;;107.40;66.85;;;179.50;1561.60;;;;;;4843206;29;20105;-77
2021/01/09 11:23:11;;;;;;;108.43;71.95;;;179.40;1561.60;;;;;;4844853;29;20045;-77
2021/01/09 11:25:41;;;;;;;81.50;54.30;;;179.40;1561.60;;;;;;4841493;29;20022;-78
2021/01/09 11:28:07;;;;;;;93.70;60.42;;;154.40;1587.20;;;;;;4844293;29;20045;-76
2021/01/09 11:30:32;;;;;;;81.60;56.40;;;154.00;1664.00;;;;;;4843411;29;20098;-78
2021/01/09 11:32:58;;;;;;;75.13;53.42;;;153.80;1664.00;;;;;;4825879;29;20109;-79
2021/01/09 11:35:24;;;;;;;100.30;68.68;;;128.70;1715.20;;;;;;4834457;29;20026;-78
2021/01/09 11:37:50;;;;;;;102.65;70.13;;;128.40;1740.80;;;;;;4844541;29;20034;-77
2021/01/09 11:40:15;;;;;;;91.07;59.97;;;128.20;1792.00;;;;;;4846386;29;20033;-77
2021/01/09 11:42:42;;;;;;;106.80;64.65;;;128.10;1792.00;;;;;;4846024;29;20026;-76
2021/01/09 11:45:08;;;;;;;79.50;51.30;;;103.10;1817.60;;;;;;4844627;29;20561;-76
2021/01/09 11:47:34;;;;;;;85.70;55.53;;;103.10;1792.00;;;;;;4846267;29;20138;-77
2021/01/09 11:50:00;;;;;;;93.85;58.42;;;102.90;1843.20;;;;;;4844480;29;20026;-75
2021/01/09 11:52:25;;;;;;;84.70;53.42;;;103.00;1843.20;;;;;;4843732;29;20171;-77
2021/01/09 11:54:51;;;;;;;91.60;58.05;;;102.80;1868.80;;;;;;4843904;29;20030;-77
2021/01/09 11:57:17;;;;;;;93.38;57.90;;;102.80;1843.20;;;;;;4839621;29;20041;-77
2021/01/09 11:59:43;;;;;;;90.78;59.42;;;102.70;1868.80;;;;;;4840983;29;20057;-77
2021/01/09 12:02:11;;;;;;;97.90;59.83;;;102.60;1894.40;;;;;;4842796;29;20066;-77
2021/01/09 12:04:37;;;;;;;93.93;55.97;;;102.60;1894.40;;;;;;4839625;29;20021;-76
2021/01/09 12:07:03;;;;;;;91.05;54.85;;;77.60;1920.00;;;;;;4842560;29;20102;-76
2021/01/09 12:09:29;;;;;;;97.53;59.50;;;77.40;1945.60;;;;;;4842245;29;20026;-76
2021/01/09 12:11:55;;;;;;;117.93;69.97;;;77.30;1971.20;;;;;;4841655;29;20030;-76
2021/01/09 12:14:21;;;;;;;108.00;62.80;;;77.20;1996.80;;;;;;4842128;29;20053;-77